createdAt,value
2022-11-16T00:00:10.792Z,83.86
2022-11-16T00:02:13.597Z,83.63
2022-11-16T00:04:16.609Z,83.69
2022-11-16T00:06:25.734Z,83.42
2022-11-16T00:08:34.358Z,82.99
2022-11-16T00:10:39.349Z,82.97
2022-11-16T00:12:41.132Z,83.35
2022-11-16T00:14:46.016Z,83.32
2022-11-16T00:16:51.774Z,82.87
2022-11-16T00:18:58.472Z,83.17
2022-11-16T00:21:07.361Z,82.90
2022-11-16T00:23:09.294Z,83.06
2022-11-16T00:25:11.304Z,82.61
2022-11-16T00:27:13.341Z,82.82
2022-11-16T00:29:24.735Z,82.42
2022-11-16T00:31:33.699Z,82.67
2022-11-16T00:33:36.012Z,82.56
2022-11-16T00:35:39.858Z,82.68
2022-11-16T00:37:51.154Z,82.77
2022-11-16T00:39:52.958Z,82.64
2022-11-16T00:42:05.150Z,82.35
2022-11-16T00:44:13.453Z,81.87
2022-11-16T00:46:18.071Z,82.20
2022-11-16T00:48:21.667Z,82.44
2022-11-16T00:50:24.562Z,81.86
2022-11-16T00:52:26.542Z,82.28
2022-11-16T00:54:31.193Z,82.00
2022-11-16T00:56:35.735Z,82.15
2022-11-16T00:58:37.650Z,82.48
2022-11-16T01:00:42.201Z,82.81
2022-11-16T01:02:44.313Z,82.57
2022-11-16T01:04:46.131Z,82.55
2022-11-16T01:06:48.051Z,82.31
2022-11-16T01:08:50.522Z,82.43
2022-11-16T01:10:53.520Z,82.65
2022-11-16T01:12:56.222Z,82.43
2022-11-16T01:14:58.089Z,82.51
2022-11-16T01:16:59.977Z,82.35
2022-11-16T01:19:06.167Z,82.32
2022-11-16T01:21:08.373Z,82.50
2022-11-16T01:23:10.219Z,81.96
2022-11-16T01:25:15.167Z,82.55
2022-11-16T01:27:16.952Z,82.16
2022-11-16T01:29:18.876Z,82.17
2022-11-16T01:31:21.864Z,82.71
2022-11-16T01:33:24.142Z,82.11
2022-11-16T01:35:27.042Z,81.88
2022-11-16T01:37:30.225Z,82.22
2022-11-16T01:39:35.079Z,81.44
2022-11-16T01:41:36.927Z,81.48
2022-11-16T01:43:52.435Z,81.67
2022-11-16T01:45:54.380Z,81.67
2022-11-16T01:47:56.267Z,81.67
2022-11-16T01:50:19.157Z,81.65
2022-11-16T01:52:25.368Z,81.67
2022-11-16T01:54:28.983Z,81.58
2022-11-16T01:56:33.015Z,79.83
2022-11-16T01:58:35.637Z,79.24
2022-11-16T02:00:37.707Z,80.00
2022-11-16T02:02:39.515Z,79.96
2022-11-16T02:04:41.837Z,80.11
2022-11-16T02:07:13.549Z,80.06
2022-11-16T02:09:53.066Z,80.38
2022-11-16T02:12:25.995Z,79.35
2022-11-16T02:14:55.091Z,79.66
2022-11-16T02:17:21.010Z,79.72
2022-11-16T02:19:34.891Z,78.54
2022-11-16T02:22:18.924Z,78.52
2022-11-16T02:24:44.385Z,77.17
2022-11-16T02:27:01.139Z,77.22
2022-11-16T02:29:12.018Z,77.21
2022-11-16T02:31:18.662Z,77.58
2022-11-16T02:33:27.951Z,76.54
2022-11-16T02:35:47.415Z,77.02
2022-11-16T02:37:58.133Z,77.11
2022-11-16T02:40:04.936Z,77.20
2022-11-16T02:42:14.146Z,77.51
2022-11-16T02:44:40.370Z,77.92
2022-11-16T02:46:46.294Z,77.48
2022-11-16T02:48:53.463Z,76.71
2022-11-16T02:50:56.211Z,76.49
2022-11-16T02:52:58.183Z,76.75
2022-11-16T02:55:00.012Z,76.87
2022-11-16T02:57:04.887Z,77.33
2022-11-16T02:59:08.822Z,76.58
2022-11-16T03:01:35.490Z,76.73
2022-11-16T03:03:59.188Z,77.14
2022-11-16T03:06:11.692Z,77.06
2022-11-16T03:08:29.730Z,77.08
2022-11-16T03:10:54.350Z,77.51
2022-11-16T03:12:57.480Z,76.30
2022-11-16T03:15:05.041Z,77.14
2022-11-16T03:17:17.993Z,77.49
2022-11-16T03:22:42.150Z,77.01
2022-11-16T03:24:44.538Z,77.28
2022-11-16T03:26:58.045Z,77.93
2022-11-16T03:29:20.261Z,78.14
2022-11-16T03:31:42.309Z,78.84
2022-11-16T03:33:48.761Z,79.09
2022-11-16T03:36:05.313Z,78.96
2022-11-16T03:38:09.870Z,78.36
2022-11-16T03:40:13.343Z,78.08
2022-11-16T03:42:16.742Z,78.51
2022-11-16T03:44:21.385Z,78.77
2022-11-16T03:46:24.509Z,78.59
2022-11-16T03:48:36.033Z,78.55
2022-11-16T03:50:38.550Z,78.91
2022-11-16T03:52:40.558Z,79.17
2022-11-16T03:54:42.981Z,79.13
2022-11-16T03:56:44.760Z,78.97
2022-11-16T03:58:46.827Z,78.52
2022-11-16T04:00:48.949Z,79.06
2022-11-16T04:02:52.793Z,79.02
2022-11-16T04:05:13.257Z,78.99
2022-11-16T04:07:33.947Z,79.16
2022-11-16T04:09:54.478Z,79.19
2022-11-16T04:12:15.127Z,78.93
2022-11-16T04:14:42.480Z,79.44
2022-11-16T04:17:02.735Z,78.96
2022-11-16T04:19:29.256Z,78.81
2022-11-16T04:21:58.914Z,78.97
2022-11-16T04:24:13.013Z,78.58
2022-11-16T04:26:15.071Z,78.41
2022-11-16T04:28:19.847Z,78.41
2022-11-16T04:30:21.897Z,79.47
2022-11-16T04:32:42.143Z,79.13
2022-11-16T04:35:02.809Z,79.34
2022-11-16T04:37:39.243Z,79.69
2022-11-16T04:39:43.103Z,79.30
2022-11-16T04:42:03.381Z,79.75
2022-11-16T04:44:05.300Z,79.77
2022-11-16T04:46:25.782Z,79.60
2022-11-16T04:48:27.639Z,79.60
2022-11-16T04:50:29.551Z,79.93
2022-11-16T04:52:31.433Z,80.32
2022-11-16T04:54:34.287Z,80.25
2022-11-16T04:56:36.154Z,80.41
2022-11-16T04:58:46.663Z,80.14
2022-11-16T05:00:50.463Z,80.50
2022-11-16T05:02:59.710Z,80.70
2022-11-16T05:05:03.705Z,80.89
2022-11-16T05:07:12.088Z,80.89
2022-11-16T05:09:19.822Z,80.95
2022-11-16T05:11:24.053Z,81.19
2022-11-16T05:13:25.926Z,81.53
2022-11-16T05:15:27.855Z,81.29
2022-11-16T05:17:29.910Z,81.69
2022-11-16T05:20:09.056Z,81.16
2022-11-16T05:22:11.888Z,81.94
2022-11-16T05:24:32.458Z,81.19
2022-11-16T05:26:37.311Z,82.01
2022-11-16T05:28:39.160Z,81.60
2022-11-16T05:30:45.938Z,81.63
2022-11-16T05:32:47.812Z,81.97
2022-11-16T05:34:50.153Z,82.47
2022-11-16T05:36:53.651Z,82.85
2022-11-16T05:38:56.448Z,83.00
2022-11-16T05:40:58.361Z,82.58
2022-11-16T05:43:03.375Z,82.98
2022-11-16T05:45:05.725Z,82.98
2022-11-16T05:47:10.809Z,82.58
2022-11-16T05:49:13.580Z,82.95
2022-11-16T05:51:15.786Z,83.23
2022-11-16T05:53:17.628Z,83.17
2022-11-16T05:55:19.449Z,83.60
2022-11-16T05:57:31.353Z,83.13
2022-11-16T05:59:33.345Z,82.94
2022-11-16T06:01:35.315Z,83.77
2022-11-16T06:03:37.281Z,83.66
2022-11-16T06:05:40.725Z,83.24
2022-11-16T06:07:42.725Z,83.63
2022-11-16T06:09:45.565Z,83.54
2022-11-16T06:11:47.494Z,83.41
2022-11-16T06:13:55.463Z,83.66
2022-11-16T06:15:57.650Z,83.46
2022-11-16T06:17:59.448Z,83.75
2022-11-16T06:20:03.503Z,83.98
2022-11-16T06:22:07.248Z,83.60
2022-11-16T06:24:10.206Z,83.76
2022-11-16T06:26:12.083Z,83.80
2022-11-16T06:28:15.339Z,82.87
2022-11-16T06:30:17.404Z,83.17
2022-11-16T06:32:19.283Z,83.21
2022-11-16T06:34:21.173Z,82.88
2022-11-16T06:36:23.223Z,83.14
2022-11-16T06:38:31.120Z,83.29
2022-11-16T06:40:34.291Z,82.91
2022-11-16T06:42:36.254Z,82.68
2022-11-16T06:44:38.143Z,81.90
2022-11-16T06:46:40.087Z,82.60
2022-11-16T06:48:41.950Z,82.63
2022-11-16T06:50:43.872Z,82.00
2022-11-16T06:52:46.962Z,81.77
2022-11-16T06:54:48.822Z,81.10
2022-11-16T06:56:50.717Z,82.07
2022-11-16T06:58:53.626Z,81.60
2022-11-16T07:00:55.632Z,81.18
2022-11-16T07:02:57.653Z,81.50
2022-11-16T07:05:03.479Z,81.21
2022-11-16T07:07:07.286Z,80.94
2022-11-16T07:09:09.905Z,80.37
2022-11-16T07:11:12.799Z,80.75
2022-11-16T07:13:15.807Z,80.07
2022-11-16T07:15:17.892Z,81.04
2022-11-16T07:17:19.804Z,80.54
2022-11-16T07:19:23.632Z,79.86
2022-11-16T07:21:25.991Z,79.88
2022-11-16T07:23:30.376Z,80.26
2022-11-16T07:25:34.423Z,80.25
2022-11-16T07:27:36.470Z,80.09
2022-11-16T07:29:39.313Z,80.63
2022-11-16T07:31:44.237Z,79.80
2022-11-16T07:33:46.086Z,80.03
2022-11-16T07:35:48.998Z,80.03
2022-11-16T07:37:50.909Z,79.54
2022-11-16T07:39:52.795Z,79.77
2022-11-16T07:41:54.767Z,79.02
2022-11-16T07:43:57.167Z,79.05
2022-11-16T07:48:42.807Z,79.02
2022-11-16T07:50:44.712Z,79.61
2022-11-16T07:52:47.709Z,80.01
2022-11-16T07:54:50.613Z,79.68
2022-11-16T07:56:52.510Z,79.69
2022-11-16T07:58:55.387Z,79.98
2022-11-16T08:01:11.653Z,79.96
2022-11-16T08:03:18.192Z,80.14
2022-11-16T08:05:23.789Z,80.46
2022-11-16T08:07:26.695Z,80.67
2022-11-16T08:09:28.775Z,80.43
2022-11-16T08:11:30.649Z,81.20
2022-11-16T08:13:35.199Z,80.75
2022-11-16T08:15:37.082Z,81.10
2022-11-16T08:17:38.980Z,81.16
2022-11-16T08:19:42.526Z,81.37
2022-11-16T08:21:45.957Z,81.16
2022-11-16T08:23:47.930Z,81.70
2022-11-16T08:25:49.831Z,80.94
2022-11-16T08:27:51.716Z,80.87
2022-11-16T08:29:53.578Z,81.15
2022-11-16T08:31:55.766Z,81.32
2022-11-16T08:34:00.521Z,81.02
2022-11-16T08:36:14.025Z,81.43
2022-11-16T08:38:16.529Z,81.70
2022-11-16T08:40:18.489Z,80.70
2022-11-16T08:42:21.629Z,81.55
2022-11-16T08:44:23.703Z,81.55
2022-11-16T08:46:26.424Z,81.18
2022-11-16T08:48:28.350Z,81.03
2022-11-16T08:50:33.446Z,81.02
2022-11-16T08:52:41.668Z,81.50
2022-11-16T08:54:43.587Z,81.70
2022-11-16T08:56:45.458Z,81.64
2022-11-16T08:58:48.283Z,81.52
2022-11-16T09:00:53.287Z,81.15
2022-11-16T09:02:55.214Z,81.21
2022-11-16T09:04:57.392Z,81.59
2022-11-16T09:07:00.343Z,80.72
2022-11-16T09:09:04.412Z,80.64
2022-11-16T09:11:11.890Z,80.66
2022-11-16T09:13:14.874Z,80.24
2022-11-16T09:15:16.815Z,80.22
2022-11-16T09:17:22.991Z,80.44
2022-11-16T09:19:27.272Z,79.74
2022-11-16T09:21:30.367Z,79.81
2022-11-16T09:23:32.311Z,79.79
2022-11-16T09:25:34.148Z,80.16
2022-11-16T09:27:38.090Z,79.50
2022-11-16T09:29:39.924Z,79.07
2022-11-16T09:31:44.928Z,78.79
2022-11-16T09:33:47.944Z,79.08
2022-11-16T09:35:49.843Z,79.01
2022-11-16T09:37:51.676Z,79.33
2022-11-16T09:39:53.562Z,79.43
2022-11-16T09:42:24.191Z,78.34
2022-11-16T09:44:31.880Z,78.59
2022-11-16T09:46:52.919Z,78.73
2022-11-16T09:48:59.012Z,79.35
2022-11-16T09:51:07.702Z,79.15
2022-11-16T09:53:46.993Z,78.60
2022-11-16T09:56:21.932Z,78.48
2022-11-16T09:58:34.588Z,79.39
2022-11-16T10:00:41.545Z,79.42
2022-11-16T10:02:48.243Z,79.01
2022-11-16T10:04:58.600Z,79.61
2022-11-16T10:07:12.382Z,78.44
2022-11-16T10:09:14.579Z,78.56
2022-11-16T10:11:16.443Z,78.79
2022-11-16T10:13:38.278Z,78.88
2022-11-16T10:15:50.745Z,78.33
2022-11-16T10:18:17.430Z,77.60
2022-11-16T10:20:41.587Z,78.18
2022-11-16T10:22:59.842Z,77.43
2022-11-16T10:25:25.839Z,77.26
2022-11-16T10:27:39.185Z,76.75
2022-11-16T10:30:07.308Z,76.47
2022-11-16T10:32:22.610Z,75.67
2022-11-16T10:34:42.599Z,76.09
2022-11-16T10:36:45.318Z,76.44
2022-11-16T10:38:47.302Z,77.05
2022-11-16T10:41:34.980Z,77.62
2022-11-16T10:43:37.411Z,77.71
2022-11-16T10:45:58.135Z,76.56
2022-11-16T10:47:59.969Z,76.65
2022-11-16T10:50:14.720Z,77.13
2022-11-16T10:52:16.591Z,77.12
2022-11-16T10:54:18.804Z,76.57
2022-11-16T10:56:45.849Z,76.81
2022-11-16T10:59:08.402Z,76.81
2022-11-16T11:01:10.676Z,76.74
2022-11-16T11:03:13.435Z,76.50
2022-11-16T11:05:20.404Z,76.65
2022-11-16T11:07:29.585Z,75.84
2022-11-16T11:09:37.036Z,76.33
2022-11-16T11:11:57.559Z,76.14
2022-11-16T11:14:08.983Z,75.93
2022-11-16T11:16:18.501Z,75.52
2022-11-16T11:18:23.440Z,75.90
2022-11-16T11:20:25.509Z,75.47
2022-11-16T11:22:27.898Z,75.60
2022-11-16T11:24:43.836Z,76.09
2022-11-16T11:26:53.905Z,75.20
2022-11-16T11:28:56.530Z,74.97
2022-11-16T11:31:26.096Z,74.84
2022-11-16T11:33:33.379Z,75.79
2022-11-16T11:35:35.544Z,74.64
2022-11-16T11:37:39.928Z,75.44
2022-11-16T11:39:42.966Z,74.84
2022-11-16T11:41:47.074Z,75.11
2022-11-16T11:44:06.541Z,74.84
2022-11-16T11:46:42.206Z,75.64
2022-11-16T11:49:25.274Z,75.54
2022-11-16T11:51:36.055Z,75.21
2022-11-16T11:53:58.045Z,74.94
2022-11-16T11:56:00.583Z,74.96
2022-11-16T11:58:06.414Z,75.43
2022-11-16T12:00:09.517Z,74.13
2022-11-16T12:02:36.545Z,73.31
2022-11-16T12:04:53.316Z,73.91
2022-11-16T12:07:07.216Z,74.21
2022-11-16T12:09:09.121Z,74.68
2022-11-16T12:11:39.186Z,74.23
2022-11-16T12:14:03.345Z,73.88
2022-11-16T12:16:13.875Z,74.04
2022-11-16T12:18:29.145Z,74.34
2022-11-16T12:21:13.393Z,74.02
2022-11-16T12:23:27.592Z,73.16
2022-11-16T12:25:46.010Z,72.91
2022-11-16T12:28:18.781Z,73.75
2022-11-16T12:30:24.043Z,74.46
2022-11-16T12:32:37.954Z,72.55
2022-11-16T12:34:48.634Z,73.33
2022-11-16T12:37:16.135Z,72.84
2022-11-16T12:39:54.550Z,73.91
2022-11-16T12:42:27.918Z,73.50
2022-11-16T12:44:45.961Z,72.22
2022-11-16T12:47:32.081Z,74.52
2022-11-16T12:50:01.884Z,75.46
2022-11-16T12:52:23.683Z,74.99
2022-11-16T12:57:53.837Z,75.06
2022-11-16T13:00:01.912Z,76.09
2022-11-16T13:02:34.158Z,76.01
2022-11-16T13:04:45.822Z,76.30
2022-11-16T13:07:10.968Z,76.63
2022-11-16T13:09:18.424Z,76.21
2022-11-16T13:11:26.008Z,76.58
2022-11-16T13:13:38.829Z,77.17
2022-11-16T13:15:48.967Z,77.38
2022-11-16T13:18:04.022Z,77.98
2022-11-16T13:20:32.089Z,77.11
2022-11-16T13:22:47.040Z,77.13
2022-11-16T13:25:13.144Z,77.72
2022-11-16T13:27:48.278Z,77.31
2022-11-16T13:30:35.134Z,77.12
2022-11-16T13:32:51.941Z,77.74
2022-11-16T13:35:18.972Z,78.36
2022-11-16T13:37:39.296Z,78.53
2022-11-16T13:40:21.707Z,77.87
2022-11-16T13:42:25.024Z,77.73
2022-11-16T13:44:33.848Z,77.58
2022-11-16T13:46:55.945Z,77.29
2022-11-16T13:48:59.602Z,77.56
2022-11-16T13:51:16.403Z,78.04
2022-11-16T13:56:00.628Z,78.10
2022-11-16T13:58:21.834Z,77.97
2022-11-16T14:00:30.811Z,78.18
2022-11-16T14:02:36.541Z,77.83
2022-11-16T14:05:13.497Z,77.66
2022-11-16T14:07:52.342Z,78.72
2022-11-16T14:09:54.285Z,78.08
2022-11-16T14:12:34.891Z,78.57
2022-11-16T14:15:13.782Z,77.52
2022-11-16T14:17:54.887Z,78.40
2022-11-16T14:19:57.847Z,77.56
2022-11-16T14:22:12.678Z,77.99
2022-11-16T14:24:40.109Z,78.53
2022-11-16T14:27:15.816Z,77.71
2022-11-16T14:29:46.792Z,78.11
2022-11-16T14:31:56.120Z,77.68
2022-11-16T14:34:00.926Z,77.83
2022-11-16T14:36:06.572Z,78.23
2022-11-16T14:38:21.959Z,77.26
2022-11-16T14:40:24.277Z,76.85
2022-11-16T14:42:54.278Z,76.92
2022-11-16T14:45:06.340Z,77.03
2022-11-16T14:47:21.234Z,76.44
2022-11-16T14:49:26.231Z,76.04
2022-11-16T14:51:42.796Z,75.43
2022-11-16T14:54:14.963Z,75.02
2022-11-16T14:56:18.461Z,75.21
2022-11-16T14:58:23.044Z,75.41
2022-11-16T15:00:26.114Z,75.37
2022-11-16T15:02:38.293Z,75.14
2022-11-16T15:04:41.422Z,74.88
2022-11-16T15:06:50.848Z,75.66
2022-11-16T15:08:59.334Z,75.05
2022-11-16T15:11:11.731Z,75.61
2022-11-16T15:13:30.996Z,74.72
2022-11-16T15:15:35.948Z,74.50
2022-11-16T15:17:51.974Z,75.25
2022-11-16T15:20:02.340Z,75.48
2022-11-16T15:22:05.520Z,75.69
2022-11-16T15:24:29.775Z,75.24
2022-11-16T15:26:34.457Z,75.42
2022-11-16T15:28:37.662Z,74.93
2022-11-16T15:30:40.677Z,75.18
2022-11-16T15:32:45.620Z,75.26
2022-11-16T15:34:54.897Z,75.98
2022-11-16T15:36:56.844Z,75.93
2022-11-16T15:39:02.768Z,75.39
2022-11-16T15:41:06.921Z,75.42
2022-11-16T15:43:25.401Z,75.43
2022-11-16T15:45:28.573Z,75.46
2022-11-16T15:47:32.562Z,75.24
2022-11-16T15:49:40.404Z,75.35
2022-11-16T15:51:45.962Z,75.70
2022-11-16T15:53:53.031Z,75.90
2022-11-16T15:56:01.548Z,75.85
2022-11-16T15:58:26.744Z,76.38
2022-11-16T16:00:29.816Z,76.05
2022-11-16T16:02:37.793Z,75.69
2022-11-16T16:04:41.573Z,75.48
2022-11-16T16:06:53.877Z,76.08
2022-11-16T16:09:06.598Z,76.19
2022-11-16T16:11:26.740Z,76.06
2022-11-16T16:13:35.173Z,75.86
2022-11-16T16:15:37.677Z,75.28
2022-11-16T16:17:46.531Z,75.58
2022-11-16T16:19:56.176Z,76.18
2022-11-16T16:22:01.314Z,75.58
2022-11-16T16:24:04.350Z,75.68
2022-11-16T16:26:06.469Z,76.04
2022-11-16T16:28:13.750Z,76.00
2022-11-16T16:30:16.511Z,76.11
2022-11-16T16:32:23.948Z,75.83
2022-11-16T16:34:26.090Z,75.98
2022-11-16T16:36:30.018Z,75.82
2022-11-16T16:38:31.958Z,76.14
2022-11-16T16:40:35.854Z,75.76
2022-11-16T16:42:43.086Z,76.60
2022-11-16T16:44:46.294Z,76.36
2022-11-16T16:46:48.195Z,76.04
2022-11-16T16:48:52.064Z,76.25
2022-11-16T16:50:54.147Z,76.19
2022-11-16T16:52:56.069Z,76.58
2022-11-16T16:54:59.934Z,76.96
2022-11-16T16:57:02.631Z,77.24
2022-11-16T16:59:04.514Z,76.56
2022-11-16T17:01:06.520Z,76.84
2022-11-16T17:03:09.430Z,77.27
2022-11-16T17:05:11.758Z,77.35
2022-11-16T17:07:14.245Z,76.82
2022-11-16T17:09:22.044Z,76.78
2022-11-16T17:11:24.478Z,76.75
2022-11-16T17:13:26.492Z,76.50
2022-11-16T17:15:30.067Z,76.07
2022-11-16T17:17:36.371Z,75.87
2022-11-16T17:19:38.766Z,76.14
2022-11-16T17:21:41.085Z,76.14
2022-11-16T17:23:43.189Z,75.78
2022-11-16T17:25:45.451Z,75.83
2022-11-16T17:27:48.748Z,75.72
2022-11-16T17:29:53.133Z,75.29
2022-11-16T17:31:56.418Z,75.46
2022-11-16T17:33:58.904Z,75.81
2022-11-16T17:36:03.297Z,75.28
2022-11-16T17:38:06.756Z,75.19
2022-11-16T17:40:09.873Z,75.40
2022-11-16T17:42:11.834Z,74.82
2022-11-16T17:44:18.610Z,74.76
2022-11-16T17:46:26.159Z,74.19
2022-11-16T17:48:28.256Z,74.07
2022-11-16T17:50:30.141Z,74.02
2022-11-16T17:52:33.575Z,73.95
2022-11-16T17:54:35.585Z,74.19
2022-11-16T17:56:38.239Z,73.22
2022-11-16T17:58:40.975Z,73.57
2022-11-16T18:00:43.121Z,73.51
2022-11-16T18:02:45.623Z,73.24
2022-11-16T18:04:51.031Z,72.64
2022-11-16T18:06:53.718Z,72.73
2022-11-16T18:08:57.727Z,73.44
2022-11-16T18:11:16.763Z,73.86
2022-11-16T18:13:18.768Z,73.93
2022-11-16T18:15:28.391Z,73.85
2022-11-16T18:17:31.975Z,73.99
2022-11-16T18:19:34.354Z,74.17
2022-11-16T18:21:41.851Z,74.42
2022-11-16T18:23:44.043Z,76.08
2022-11-16T18:25:47.233Z,76.07
2022-11-16T18:27:56.317Z,74.98
2022-11-16T18:29:58.547Z,75.50
2022-11-16T18:32:02.022Z,74.99
2022-11-16T18:34:04.358Z,75.27
2022-11-16T18:36:08.017Z,74.81
2022-11-16T18:38:13.309Z,75.09
2022-11-16T18:40:16.090Z,74.85
2022-11-16T18:42:19.069Z,74.54
2022-11-16T18:44:21.411Z,74.26
2022-11-16T18:46:28.346Z,73.85
2022-11-16T18:48:31.538Z,74.08
2022-11-16T18:50:33.914Z,74.43
2022-11-16T18:52:36.402Z,74.55
2022-11-16T18:54:38.386Z,74.79
2022-11-16T18:56:40.657Z,74.78
2022-11-16T18:58:50.335Z,74.70
2022-11-16T19:00:55.263Z,74.01
2022-11-16T19:03:00.648Z,73.79
2022-11-16T19:05:03.220Z,74.50
2022-11-16T19:07:06.100Z,74.10
2022-11-16T19:09:10.247Z,73.78
2022-11-16T19:11:14.993Z,73.81
2022-11-16T19:13:18.896Z,73.09
2022-11-16T19:15:21.309Z,73.36
2022-11-16T19:17:25.316Z,73.83
2022-11-16T19:19:28.472Z,74.02
2022-11-16T19:21:31.740Z,73.97
2022-11-16T19:23:43.605Z,73.73
2022-11-16T19:25:46.541Z,73.69
2022-11-16T19:27:48.857Z,73.55
2022-11-16T19:29:51.186Z,73.49
2022-11-16T19:31:53.632Z,73.21
2022-11-16T19:34:09.346Z,73.65
2022-11-16T19:36:20.199Z,73.24
2022-11-16T19:38:22.616Z,72.86
2022-11-16T19:40:25.282Z,73.11
2022-11-16T19:42:28.932Z,73.60
2022-11-16T19:44:30.912Z,73.88
2022-11-16T19:46:34.233Z,73.59
2022-11-16T19:48:36.449Z,73.29
2022-11-16T19:50:38.729Z,72.70
2022-11-16T19:52:41.123Z,73.89
2022-11-16T19:54:46.316Z,73.48
2022-11-16T19:56:54.677Z,73.19
2022-11-16T19:59:00.877Z,73.71
2022-11-16T20:01:08.680Z,73.18
2022-11-16T20:03:12.289Z,73.60
2022-11-16T20:05:15.189Z,73.43
2022-11-16T20:07:18.624Z,74.36
2022-11-16T20:09:21.932Z,74.44
2022-11-16T20:11:28.365Z,74.07
2022-11-16T20:13:30.699Z,73.69
2022-11-16T20:15:33.037Z,73.90
2022-11-16T20:17:35.714Z,73.87
2022-11-16T20:19:38.046Z,73.85
2022-11-16T20:21:41.929Z,73.43
2022-11-16T20:23:45.976Z,73.41
2022-11-16T20:25:50.756Z,73.98
2022-11-16T20:27:53.050Z,74.53
2022-11-16T20:30:09.294Z,73.64
2022-11-16T20:32:12.032Z,73.24
2022-11-16T20:34:22.755Z,74.04
2022-11-16T20:36:31.131Z,73.77
2022-11-16T20:38:35.960Z,73.95
2022-11-16T20:40:38.265Z,73.21
2022-11-16T20:42:40.367Z,73.42
2022-11-16T20:44:43.769Z,74.07
2022-11-16T20:46:46.344Z,73.98
2022-11-16T20:48:49.359Z,74.38
2022-11-16T20:50:53.495Z,74.14
2022-11-16T20:52:56.928Z,73.67
2022-11-16T20:54:59.322Z,73.81
2022-11-16T20:57:02.499Z,73.49
2022-11-16T20:59:05.790Z,73.06
2022-11-16T21:01:13.616Z,73.55
2022-11-16T21:03:15.700Z,73.72
2022-11-16T21:05:17.998Z,72.99
2022-11-16T21:07:19.939Z,73.70
2022-11-16T21:09:28.499Z,73.78
2022-11-16T21:11:52.279Z,72.98
2022-11-16T21:14:12.705Z,73.48
2022-11-16T21:16:16.127Z,73.42
2022-11-16T21:18:18.054Z,73.07
2022-11-16T21:20:27.420Z,73.57
2022-11-16T21:22:32.890Z,73.69
2022-11-16T21:24:35.298Z,73.40
2022-11-16T21:26:39.002Z,73.45
2022-11-16T21:28:41.787Z,72.85
2022-11-16T21:30:54.177Z,73.39
2022-11-16T21:32:56.167Z,74.42
2022-11-16T21:34:58.124Z,74.44
2022-11-16T21:37:00.317Z,74.79
2022-11-16T21:39:02.469Z,74.42
2022-11-16T21:41:06.802Z,73.88
2022-11-16T21:43:08.780Z,73.68
2022-11-16T21:45:11.170Z,73.85
2022-11-16T21:48:12.201Z,74.15
2022-11-16T21:50:31.335Z,73.89
2022-11-16T21:52:35.036Z,73.67
2022-11-16T21:55:03.010Z,73.81
2022-11-16T21:57:05.037Z,74.20
2022-11-16T21:59:07.052Z,73.88
2022-11-16T22:01:10.299Z,73.90
2022-11-16T22:03:12.207Z,73.67
2022-11-16T22:05:33.080Z,73.29
2022-11-16T22:07:38.018Z,73.57
2022-11-16T22:09:40.205Z,73.48
2022-11-16T22:11:42.146Z,73.37
2022-11-16T22:13:54.138Z,73.34
2022-11-16T22:15:56.257Z,73.50
2022-11-16T22:17:58.232Z,73.43
2022-11-16T22:20:00.349Z,72.97
2022-11-16T22:22:02.268Z,73.37
2022-11-16T22:24:04.438Z,73.04
2022-11-16T22:26:12.006Z,72.83
2022-11-16T22:28:20.597Z,72.94
2022-11-16T22:30:24.325Z,72.75
2022-11-16T22:32:26.548Z,72.41
2022-11-16T22:34:28.712Z,72.00
2022-11-16T22:36:30.657Z,72.24
2022-11-16T22:38:33.885Z,72.06
2022-11-16T22:40:35.715Z,72.03
2022-11-16T22:42:37.646Z,72.75
2022-11-16T22:44:39.604Z,71.65
2022-11-16T22:46:41.633Z,71.76
2022-11-16T22:48:44.265Z,72.08
2022-11-16T22:50:48.138Z,71.86
2022-11-16T22:52:50.178Z,71.61
2022-11-16T22:54:52.063Z,71.83
2022-11-16T22:56:53.948Z,71.11
2022-11-16T22:58:56.893Z,71.00
2022-11-16T23:00:58.757Z,71.75
2022-11-16T23:03:00.620Z,71.50
2022-11-16T23:05:02.445Z,71.23
2022-11-16T23:07:04.453Z,71.20
2022-11-16T23:09:08.409Z,70.77
2022-11-16T23:11:33.571Z,70.99
2022-11-16T23:13:54.222Z,70.85
2022-11-16T23:15:57.560Z,70.95
2022-11-16T23:17:59.410Z,70.23
2022-11-16T23:20:19.714Z,70.89
2022-11-16T23:22:40.614Z,70.48
2022-11-16T23:25:01.540Z,69.84
2022-11-16T23:27:22.551Z,69.77
2022-11-16T23:29:24.385Z,69.60
2022-11-16T23:31:26.313Z,70.42
2022-11-16T23:33:46.543Z,69.80
2022-11-16T23:35:49.368Z,70.66
2022-11-16T23:37:52.151Z,69.57
2022-11-16T23:39:54.060Z,69.93
2022-11-16T23:42:14.630Z,69.47
2022-11-16T23:44:16.521Z,69.05
2022-11-16T23:46:18.269Z,69.66
2022-11-16T23:48:19.975Z,69.64
2022-11-16T23:50:21.834Z,69.69
2022-11-16T23:52:24.637Z,69.26
2022-11-16T23:54:28.491Z,69.47
2022-11-16T23:56:30.737Z,69.49
2022-11-16T23:58:33.562Z,69.66
